Time;durP1;ratioP1;P1;durP2;ratioP2;P2;SDS_P1;SDS_P2;PMS_P1;PMS_P2;Temp;Humidity;BMP_temperature;BMP_pressure;BME280_temperature;BME280_humidity;BME280_pressure;Samples;Min_cycle;Max_cycle;Signal;HPM_P1;HPM_P2
2021/09/07 00:01:39;;;;;;;15.55;9.15;;;18.10;99.90;;;;;;8259689;28;20073;-75
2021/09/07 00:05:41;;;;;;;14.40;9.13;;;18.10;99.90;;;;;;8274903;28;20059;-73
2021/09/07 00:09:43;;;;;;;15.90;9.63;;;18.10;99.90;;;;;;8258053;28;20057;-74
2021/09/07 00:13:45;;;;;;;16.40;9.95;;;18.10;99.90;;;;;;8267586;28;20466;-74
2021/09/07 00:17:47;;;;;;;15.35;9.23;;;18.00;99.90;;;;;;8266070;28;20042;-73
2021/09/07 00:21:49;;;;;;;15.38;8.77;;;18.00;99.90;;;;;;8260338;28;20054;-74
2021/09/07 00:25:50;;;;;;;15.73;9.23;;;18.00;99.90;;;;;;8264168;28;20061;-74
2021/09/07 00:29:52;;;;;;;15.13;9.98;;;18.00;99.90;;;;;;8257112;28;20517;-74
2021/09/07 00:33:54;;;;;;;15.30;9.02;;;17.90;99.90;;;;;;8265993;28;20054;-74
2021/09/07 00:37:56;;;;;;;16.30;9.10;;;17.90;99.90;;;;;;8266573;28;20102;-74
2021/09/07 00:41:58;;;;;;;12.82;8.55;;;17.80;99.90;;;;;;8264276;28;20046;-74
2021/09/07 00:46:00;;;;;;;13.27;8.10;;;17.80;99.90;;;;;;8261439;28;20050;-73
2021/09/07 00:50:03;;;;;;;14.45;8.90;;;17.70;99.90;;;;;;8264890;28;20050;-74
2021/09/07 00:54:05;;;;;;;17.02;9.40;;;17.70;99.90;;;;;;8264404;28;20042;-73
2021/09/07 00:58:08;;;;;;;13.63;8.80;;;17.60;99.90;;;;;;8265565;28;20042;-74
2021/09/07 01:02:11;;;;;;;15.13;9.38;;;17.60;99.90;;;;;;8267889;28;20046;-73
2021/09/07 01:06:13;;;;;;;16.88;9.73;;;17.50;99.90;;;;;;8270749;28;20054;-73
2021/09/07 01:10:15;;;;;;;15.48;9.73;;;17.50;99.90;;;;;;8265791;28;20050;-73
2021/09/07 01:14:18;;;;;;;15.35;8.80;;;17.40;99.90;;;;;;8263074;28;19929;-74
2021/09/07 01:18:25;;;;;;;15.15;9.32;;;17.40;99.90;;;;;;8264807;28;20148;-74
2021/09/07 01:22:27;;;;;;;15.07;8.90;;;17.30;99.90;;;;;;8254758;28;20047;-74
2021/09/07 01:26:28;;;;;;;14.45;8.95;;;17.30;99.90;;;;;;8263469;28;20046;-74
2021/09/07 01:30:30;;;;;;;12.90;8.52;;;17.30;99.90;;;;;;8256750;28;20515;-74
2021/09/07 01:34:32;;;;;;;12.15;8.20;;;17.20;99.90;;;;;;8262991;28;19926;-73
2021/09/07 01:38:34;;;;;;;15.40;9.10;;;17.20;99.90;;;;;;8263866;28;20263;-73
2021/09/07 01:42:36;;;;;;;13.82;8.70;;;17.10;99.90;;;;;;8261945;28;20073;-74
2021/09/07 01:46:37;;;;;;;15.00;8.27;;;17.10;99.90;;;;;;8278722;28;20436;-74
2021/09/07 01:50:39;;;;;;;12.40;8.23;;;17.10;99.90;;;;;;8262820;28;20707;-74
2021/09/07 01:54:46;;;;;;;14.90;8.23;;;17.00;99.90;;;;;;8264589;28;20046;-74
2021/09/07 01:58:48;;;;;;;17.70;8.47;;;17.00;99.90;;;;;;8261730;28;20129;-74
2021/09/07 02:02:50;;;;;;;15.63;9.50;;;17.00;99.90;;;;;;8261518;28;20051;-74
2021/09/07 02:06:52;;;;;;;14.55;8.93;;;16.90;99.90;;;;;;8263343;28;20142;-74
2021/09/07 02:10:54;;;;;;;16.42;9.30;;;16.90;99.90;;;;;;8259529;28;20521;-74
2021/09/07 02:14:55;;;;;;;15.07;9.18;;;16.90;99.90;;;;;;8262586;28;20050;-74
2021/09/07 02:18:57;;;;;;;15.38;9.15;;;16.90;99.90;;;;;;8259926;28;20062;-73
2021/09/07 02:22:59;;;;;;;19.40;10.27;;;16.90;99.90;;;;;;8262946;28;20065;-74
2021/09/07 02:27:01;;;;;;;;;;;16.80;99.90;;;;;;8263613;28;20417;-73
2021/09/07 02:31:02;;;;;;;;;;;16.80;99.90;;;;;;8262113;28;19933;-74
2021/09/07 02:35:04;;;;;;;;;;;16.80;99.90;;;;;;8261451;28;19932;-75
2021/09/07 02:39:06;;;;;;;;;;;16.80;99.90;;;;;;8261692;28;19925;-73
2021/09/07 02:43:08;;;;;;;;;;;16.90;99.90;;;;;;8262952;28;19922;-75
2021/09/07 02:47:09;;;;;;;;;;;16.80;99.90;;;;;;8261751;28;19921;-73
2021/09/07 02:51:11;;;;;;;;;;;16.80;99.90;;;;;;8276056;28;20014;-74
2021/09/07 02:55:13;;;;;;;;;;;16.80;99.90;;;;;;8261798;28;19928;-73
2021/09/07 02:59:15;;;;;;;;;;;16.80;99.90;;;;;;8262474;28;19929;-74
2021/09/07 03:03:16;;;;;;;;;;;16.80;99.90;;;;;;8258111;28;19933;-74
2021/09/07 03:07:18;;;;;;;;;;;16.80;99.90;;;;;;8261127;28;19977;-73
2021/09/07 03:11:20;;;;;;;;;;;16.80;99.90;;;;;;8260052;28;19922;-74
2021/09/07 03:15:22;;;;;;;;;;;16.70;99.90;;;;;;8259249;28;19930;-73
2021/09/07 03:19:24;;;;;;;;;;;16.70;99.90;;;;;;8260205;28;20483;-73
2021/09/07 03:23:26;;;;;;;;;;;16.70;99.90;;;;;;8274466;28;20361;-73
2021/09/07 03:27:28;;;;;;;;;;;16.70;99.90;;;;;;8261230;28;20376;-74
2021/09/07 03:31:29;;;;;;;;;;;16.60;99.90;;;;;;8258713;28;19933;-74
2021/09/07 03:35:31;;;;;;;;;;;16.60;99.90;;;;;;8276637;28;19930;-73
2021/09/07 03:39:33;;;;;;;;;;;16.60;99.90;;;;;;8259748;28;19945;-73
2021/09/07 03:43:34;;;;;;;;;;;16.50;99.90;;;;;;8255528;28;19929;-73
2021/09/07 03:47:36;;;;;;;;;;;16.50;99.90;;;;;;8273068;28;19929;-73
2021/09/07 03:51:38;;;;;;;;;;;16.40;99.90;;;;;;8258296;28;19929;-73
2021/09/07 03:55:39;;;;;;;15.90;9.55;;;16.40;99.90;;;;;;8257207;28;19926;-73
2021/09/07 03:59:41;;;;;;;14.52;8.73;;;16.30;99.90;;;;;;8257696;28;20050;-73
2021/09/07 04:03:43;;;;;;;13.60;8.30;;;16.30;99.90;;;;;;8256800;28;20069;-73
2021/09/07 04:07:45;;;;;;;13.73;7.97;;;16.30;99.90;;;;;;8259164;28;20077;-73
2021/09/07 04:11:47;;;;;;;14.00;8.20;;;16.20;99.90;;;;;;8257623;28;20042;-73
2021/09/07 04:15:49;;;;;;;11.50;6.43;;;16.20;99.90;;;;;;8261209;28;20053;-73
2021/09/07 04:19:51;;;;;;;15.35;7.07;;;16.20;99.90;;;;;;8256520;28;20053;-73
2021/09/07 04:23:52;;;;;;;12.65;8.10;;;16.10;99.90;;;;;;8258480;28;20070;-73
2021/09/07 04:27:54;;;;;;;;;;;16.10;99.90;;;;;;8258088;28;20289;-72
2021/09/07 04:31:56;;;;;;;;;;;16.10;99.90;;;;;;8259137;28;19945;-72
2021/09/07 04:35:57;;;;;;;;;;;16.00;99.90;;;;;;8275604;28;19972;-73
2021/09/07 04:39:59;;;;;;;;;;;16.00;99.90;;;;;;8257004;28;19926;-72
2021/09/07 04:44:00;;;;;;;;;;;16.00;99.90;;;;;;8258825;28;19921;-73
2021/09/07 04:48:02;;;;;;;;;;;16.00;99.90;;;;;;8258636;28;20192;-72
2021/09/07 04:52:04;;;;;;;12.35;8.07;;;16.00;99.90;;;;;;8273639;28;19949;-72
2021/09/07 04:56:06;;;;;;;13.60;8.05;;;15.90;99.90;;;;;;8260980;28;20039;-73
2021/09/07 05:00:08;;;;;;;14.40;8.50;;;15.90;99.90;;;;;;8265394;28;20089;-73
2021/09/07 05:04:10;;;;;;;14.98;8.15;;;15.90;99.90;;;;;;8265830;28;20098;-72
2021/09/07 05:08:11;;;;;;;13.15;8.40;;;15.90;99.90;;;;;;8265593;28;20465;-73
2021/09/07 05:12:13;;;;;;;12.57;7.45;;;15.90;99.90;;;;;;8261250;28;20045;-73
2021/09/07 05:16:15;;;;;;;18.73;7.65;;;15.90;99.90;;;;;;8262771;28;20100;-73
2021/09/07 05:20:17;;;;;;;13.90;7.68;;;15.80;99.90;;;;;;8258351;28;20117;-73
2021/09/07 05:24:18;;;;;;;14.38;7.97;;;15.80;99.90;;;;;;8273492;28;20050;-73
2021/09/07 05:28:20;;;;;;;16.27;9.00;;;15.80;99.90;;;;;;8254788;28;20081;-72
2021/09/07 05:32:28;;;;;;;14.15;8.55;;;15.80;99.90;;;;;;8259859;28;20409;-73
2021/09/07 05:36:31;;;;;;;15.27;8.75;;;15.80;99.90;;;;;;8273533;28;20486;-73
2021/09/07 05:40:33;;;;;;;12.45;7.53;;;15.80;99.90;;;;;;8274436;28;20548;-73
2021/09/07 05:44:34;;;;;;;12.85;7.43;;;15.80;99.90;;;;;;8262556;28;20077;-73
2021/09/07 05:48:36;;;;;;;14.57;8.65;;;15.80;99.90;;;;;;8243865;28;20053;-73
2021/09/07 05:52:38;;;;;;;14.80;8.30;;;15.90;99.90;;;;;;8260372;28;20049;-73
2021/09/07 05:56:40;;;;;;;14.57;8.30;;;16.00;99.90;;;;;;8261584;28;20121;-73
2021/09/07 06:00:41;;;;;;;19.90;9.48;;;16.10;99.90;;;;;;8256426;28;20491;-73
2021/09/07 06:04:43;;;;;;;15.60;9.05;;;16.10;99.90;;;;;;8254008;28;20085;-73
2021/09/07 06:08:45;;;;;;;15.93;8.65;;;16.20;99.90;;;;;;8244936;28;20053;-73
2021/09/07 06:12:47;;;;;;;17.77;9.27;;;16.30;99.90;;;;;;8245960;28;20054;-73
2021/09/07 06:16:49;;;;;;;14.95;8.77;;;16.30;99.90;;;;;;8253225;28;20058;-72
2021/09/07 06:20:50;;;;;;;13.25;8.13;;;16.30;99.90;;;;;;8252984;28;20466;-73
2021/09/07 06:24:52;;;;;;;16.92;9.00;;;16.40;99.90;;;;;;8251825;28;20057;-73
2021/09/07 06:28:54;;;;;;;18.25;8.90;;;16.50;99.90;;;;;;8252684;28;20133;-73
2021/09/07 06:32:56;;;;;;;16.83;9.30;;;16.50;99.90;;;;;;8252740;28;20046;-73
2021/09/07 06:36:57;;;;;;;15.98;9.48;;;16.60;99.90;;;;;;8252018;28;20455;-73
2021/09/07 06:40:59;;;;;;;14.90;9.07;;;16.60;99.90;;;;;;8252545;28;20050;-73
2021/09/07 06:45:02;;;;;;;16.30;9.45;;;16.60;99.90;;;;;;8252538;28;20077;-73
2021/09/07 06:49:04;;;;;;;17.55;9.07;;;16.70;99.90;;;;;;8248014;28;20050;-73
2021/09/07 06:53:06;;;;;;;15.43;9.02;;;16.80;99.90;;;;;;8266880;28;20050;-72
2021/09/07 07:02:31;;;;;;;15.23;8.35;;;16.90;99.90;;;;;;8251852;28;20037;-73
2021/09/07 07:06:33;;;;;;;16.65;9.80;;;17.00;99.90;;;;;;8262409;28;20054;-72
2021/09/07 07:10:35;;;;;;;18.95;10.60;;;17.10;99.90;;;;;;8267190;28;20053;-73
2021/09/07 07:14:36;;;;;;;22.45;12.05;;;17.20;99.90;;;;;;8249496;28;20061;-73
2021/09/07 07:18:38;;;;;;;19.67;11.15;;;17.30;99.90;;;;;;8248408;28;20050;-73
2021/09/07 07:22:40;;;;;;;22.20;12.20;;;17.40;99.90;;;;;;8248967;28;20054;-73
2021/09/07 07:26:43;;;;;;;21.98;11.75;;;17.50;99.90;;;;;;8250564;28;20046;-73
2021/09/07 07:30:44;;;;;;;21.70;12.27;;;17.60;99.90;;;;;;8249842;28;20062;-73
2021/09/07 07:34:46;;;;;;;22.52;13.18;;;17.70;99.90;;;;;;8248073;28;20963;-73
2021/09/07 07:38:48;;;;;;;24.77;13.25;;;17.80;99.90;;;;;;8248618;28;20065;-72
2021/09/07 07:42:50;;;;;;;20.48;11.75;;;17.80;99.90;;;;;;8249852;28;20054;-73
2021/09/07 07:46:51;;;;;;;19.77;11.75;;;17.90;99.90;;;;;;8248869;28;20054;-73
2021/09/07 07:50:53;;;;;;;27.17;12.85;;;18.00;99.90;;;;;;8248420;28;20085;-73
2021/09/07 07:54:55;;;;;;;24.53;13.07;;;18.10;99.90;;;;;;8249731;28;20130;-73
2021/09/07 07:58:56;;;;;;;23.55;13.20;;;18.20;99.90;;;;;;8248419;28;20058;-72
2021/09/07 08:02:58;;;;;;;;;;;18.20;99.90;;;;;;8248218;28;20758;-72
2021/09/07 08:07:09;;;;;;;24.58;15.18;;;18.30;99.90;;;;;;8247193;28;19925;-73
2021/09/07 08:11:11;;;;;;;23.73;14.50;;;18.40;99.90;;;;;;8247662;28;20065;-73
2021/09/07 08:15:13;;;;;;;23.00;14.00;;;18.50;99.90;;;;;;8247875;28;20046;-73
2021/09/07 08:19:14;;;;;;;24.05;14.10;;;18.50;99.90;;;;;;8249202;28;20058;-72
2021/09/07 08:23:16;;;;;;;22.53;14.10;;;18.70;99.90;;;;;;8248954;28;20050;-73
2021/09/07 08:27:18;;;;;;;22.02;14.27;;;18.70;99.90;;;;;;8249387;28;20073;-72
2021/09/07 08:31:20;;;;;;;29.40;15.65;;;18.80;99.90;;;;;;8250416;28;20081;-72
2021/09/07 08:35:22;;;;;;;30.95;16.90;;;18.90;99.90;;;;;;8254744;28;20043;-72
2021/09/07 08:39:24;;;;;;;27.63;16.33;;;18.90;99.90;;;;;;8255006;28;20049;-73
2021/09/07 08:43:26;;;;;;;25.90;16.00;;;19.00;99.90;;;;;;8253942;28;20442;-73
2021/09/07 08:47:29;;;;;;;28.83;16.08;;;19.00;99.90;;;;;;8269373;28;20061;-73
2021/09/07 08:51:31;;;;;;;28.02;16.75;;;19.10;99.90;;;;;;8254337;28;20097;-73
2021/09/07 08:55:33;;;;;;;24.35;15.60;;;19.20;99.90;;;;;;8251787;28;20081;-73
2021/09/07 08:59:35;;;;;;;26.95;16.17;;;19.20;99.90;;;;;;8252892;28;20057;-73
2021/09/07 09:03:40;;;;;;;27.80;17.25;;;19.30;99.90;;;;;;8255311;28;20046;-73
2021/09/07 09:07:42;;;;;;;25.90;16.27;;;19.40;99.90;;;;;;8255486;28;20720;-74
2021/09/07 09:11:54;;;;;;;27.70;16.73;;;19.40;99.90;;;;;;8254319;28;20552;-73
2021/09/07 09:16:05;;;;;;;25.88;16.20;;;19.50;99.90;;;;;;8256610;28;20047;-73
2021/09/07 09:20:18;;;;;;;28.23;17.25;;;19.60;99.90;;;;;;8249824;28;20077;-73
2021/09/07 09:24:22;;;;;;;26.77;15.43;;;19.70;99.90;;;;;;8254459;28;20479;-72
2021/09/07 09:28:24;;;;;;;29.15;16.42;;;19.80;99.90;;;;;;8252773;28;20371;-73
2021/09/07 09:32:26;;;;;;;27.50;17.42;;;19.90;99.90;;;;;;8254506;28;20050;-73
2021/09/07 09:36:30;;;;;;;27.70;17.08;;;20.00;99.90;;;;;;8257191;28;20051;-73
2021/09/07 09:40:33;;;;;;;28.17;16.58;;;20.10;99.90;;;;;;8253439;28;20043;-72
2021/09/07 09:44:36;;;;;;;28.20;17.67;;;20.20;99.90;;;;;;8255632;28;20082;-72
2021/09/07 09:48:38;;;;;;;27.90;16.25;;;20.30;99.90;;;;;;8255312;28;20046;-73
2021/09/07 09:52:41;;;;;;;25.55;16.10;;;20.50;99.90;;;;;;8255069;28;20042;-73
2021/09/07 09:56:44;;;;;;;27.30;17.15;;;20.60;99.90;;;;;;8255693;28;19929;-72
2021/09/07 10:00:46;;;;;;;;;;;20.80;99.90;;;;;;8253565;28;20038;-72
2021/09/07 10:04:49;;;;;;;;;;;21.00;99.90;;;;;;8254050;28;19922;-73
2021/09/07 10:08:51;;;;;;;25.65;16.80;;;21.10;99.90;;;;;;8253256;28;19925;-72
2021/09/07 10:12:58;;;;;;;30.42;18.58;;;21.20;99.90;;;;;;8252347;28;20290;-72
2021/09/07 10:17:28;;;;;;;26.23;16.17;;;21.40;99.90;;;;;;8245238;28;20129;-73
2021/09/07 10:25:52;;;;;;;24.67;15.65;;;21.60;99.90;;;;;;8250527;28;20101;-73
2021/09/07 10:29:54;;;;;;;23.60;15.50;;;21.70;99.90;;;;;;8249675;28;20062;-73
2021/09/07 10:33:58;;;;;;;27.50;17.48;;;21.90;99.90;;;;;;8262503;28;20095;-72
2021/09/07 10:38:11;;;;;;;26.00;16.60;;;22.00;99.90;;;;;;8248204;28;20461;-72
2021/09/07 10:42:14;;;;;;;23.20;15.23;;;22.10;99.90;;;;;;8247379;28;20446;-72
2021/09/07 10:46:17;;;;;;;23.02;14.57;;;22.20;99.90;;;;;;8249325;28;20532;-73
2021/09/07 10:50:19;;;;;;;23.10;15.23;;;22.20;99.90;;;;;;8246275;28;20049;-73
2021/09/07 10:54:21;;;;;;;25.98;14.80;;;22.30;99.90;;;;;;8250033;28;20058;-73
2021/09/07 10:58:41;;;;;;;19.70;12.35;;;22.40;99.90;;;;;;8251658;28;20061;-73
2021/09/07 11:02:49;;;;;;;19.85;13.20;;;22.50;99.90;;;;;;8250957;28;20108;-72
2021/09/07 11:06:51;;;;;;;20.98;12.25;;;22.50;99.90;;;;;;8253005;28;20046;-72
2021/09/07 11:10:54;;;;;;;22.40;13.63;;;22.60;99.90;;;;;;8252000;28;20046;-72
2021/09/07 11:15:07;;;;;;;23.38;15.25;;;22.60;99.90;;;;;;8249998;28;20105;-73
2021/09/07 11:19:09;;;;;;;24.42;15.02;;;22.70;99.90;;;;;;8252302;28;20043;-73
2021/09/07 11:23:15;;;;;;;22.77;14.57;;;22.70;99.90;;;;;;8248336;28;20050;-72
2021/09/07 11:27:16;;;;;;;21.77;12.75;;;22.80;99.90;;;;;;8251317;28;20477;-72
2021/09/07 11:31:18;;;;;;;22.10;13.32;;;22.90;99.90;;;;;;8248169;28;20067;-73
2021/09/07 11:35:20;;;;;;;22.75;13.32;;;23.00;99.90;;;;;;8248911;28;20714;-73
2021/09/07 11:39:22;;;;;;;19.88;12.10;;;23.10;99.90;;;;;;8249553;28;20050;-72
2021/09/07 11:43:32;;;;;;;19.00;12.60;;;23.20;99.90;;;;;;8251286;28;20065;-73
2021/09/07 11:47:34;;;;;;;21.70;13.95;;;23.30;99.90;;;;;;8249555;28;20168;-72
2021/09/07 11:51:42;;;;;;;17.60;12.40;;;23.40;99.90;;;;;;8247454;28;19937;-72
2021/09/07 11:55:47;;;;;;;;;;;23.40;99.90;;;;;;8247538;28;20380;-72
2021/09/07 11:59:58;;;;;;;18.02;11.20;;;23.50;99.90;;;;;;8246738;28;19936;-73
2021/09/07 12:04:00;;;;;;;17.13;11.50;;;23.60;99.90;;;;;;8246696;28;20077;-73
2021/09/07 12:08:02;;;;;;;;;;;23.70;99.90;;;;;;8238049;28;20123;-72
2021/09/07 12:12:05;;;;;;;;;;;23.80;99.90;;;;;;8240783;28;19926;-73
2021/09/07 12:16:07;;;;;;;;;;;23.90;99.90;;;;;;8246906;28;19958;-73
2021/09/07 12:20:13;;;;;;;16.48;10.98;;;23.90;99.90;;;;;;8245652;28;20053;-72
2021/09/07 12:24:15;;;;;;;14.50;8.95;;;23.90;99.90;;;;;;8246951;28;19930;-72
2021/09/07 12:28:17;;;;;;;18.65;11.68;;;24.00;99.90;;;;;;8248543;28;20065;-72
2021/09/07 12:32:19;;;;;;;19.63;10.87;;;24.10;99.90;;;;;;8247677;28;20055;-73
2021/09/07 12:36:23;;;;;;;15.50;9.40;;;24.10;99.90;;;;;;8246389;28;19930;-72
2021/09/07 12:40:25;;;;;;;;;;;24.20;99.90;;;;;;8247077;28;20047;-73
2021/09/07 12:44:40;;;;;;;;;;;24.20;99.90;;;;;;8259076;28;19984;-73
2021/09/07 12:48:43;;;;;;;;;;;24.30;99.90;;;;;;8245935;28;20396;-72
2021/09/07 12:52:44;;;;;;;14.77;8.80;;;24.30;99.90;;;;;;8237367;28;20495;-73
2021/09/07 12:56:47;;;;;;;15.30;9.00;;;24.30;99.90;;;;;;8246628;28;20560;-72
2021/09/07 13:00:49;;;;;;;;;;;24.30;99.90;;;;;;8243160;28;19926;-73
2021/09/07 13:04:50;;;;;;;;;;;24.40;99.90;;;;;;8249982;28;19945;-72
2021/09/07 13:08:52;;;;;;;;;;;24.40;99.90;;;;;;8249289;28;20285;-73
2021/09/07 13:12:54;;;;;;;;;;;24.40;99.90;;;;;;8248668;28;20285;-73
2021/09/07 13:16:55;;;;;;;;;;;24.50;99.90;;;;;;8250286;28;19925;-73
2021/09/07 13:20:58;;;;;;;;;;;24.50;99.90;;;;;;8254763;28;19922;-72
2021/09/07 13:24:59;;;;;;;;;;;24.50;99.90;;;;;;8255111;28;19925;-72
2021/09/07 13:29:01;;;;;;;;;;;24.50;99.90;;;;;;8251632;28;19921;-72
2021/09/07 13:33:03;;;;;;;;;;;24.50;99.90;;;;;;8252791;28;20033;-73
2021/09/07 13:37:04;;;;;;;;;;;24.50;99.90;;;;;;8255407;28;19922;-73
2021/09/07 13:41:06;;;;;;;;;;;24.50;99.90;;;;;;8252017;28;20285;-72
2021/09/07 13:45:08;;;;;;;17.90;11.40;;;24.60;99.90;;;;;;8252718;28;20255;-73
2021/09/07 13:49:11;;;;;;;17.70;11.57;;;24.60;99.90;;;;;;8247688;28;20278;-73
2021/09/07 13:53:12;;;;;;;15.90;10.75;;;24.60;99.90;;;;;;8253420;28;20065;-72
2021/09/07 13:57:14;;;;;;;14.98;10.55;;;24.60;99.90;;;;;;8248243;28;20109;-73
2021/09/07 14:01:16;;;;;;;16.17;10.25;;;24.70;99.90;;;;;;8252195;28;20490;-73
2021/09/07 14:05:18;;;;;;;17.90;10.00;;;24.70;99.90;;;;;;8254200;28;20466;-73
2021/09/07 14:09:20;;;;;;;14.80;9.40;;;24.80;99.90;;;;;;8252696;28;19953;-72
2021/09/07 14:13:23;;;;;;;13.80;9.93;;;24.80;99.90;;;;;;8248376;28;20114;-73
2021/09/07 14:17:25;;;;;;;14.23;10.10;;;24.80;99.90;;;;;;8250637;28;20393;-72
2021/09/07 14:21:27;;;;;;;15.10;10.55;;;24.80;99.90;;;;;;8249757;28;20057;-72
2021/09/07 14:25:29;;;;;;;12.25;8.40;;;24.80;99.90;;;;;;8251542;28;20474;-72
2021/09/07 14:29:30;;;;;;;13.23;8.02;;;24.80;99.90;;;;;;8263433;28;20227;-72
2021/09/07 14:33:32;;;;;;;12.23;8.27;;;24.90;99.90;;;;;;8249378;28;20065;-73
2021/09/07 14:37:35;;;;;;;11.95;7.80;;;24.90;99.90;;;;;;8250738;28;20133;-73
2021/09/07 14:41:39;;;;;;;12.18;8.50;;;24.90;99.90;;;;;;8247781;28;20062;-72
2021/09/07 14:45:40;;;;;;;13.20;8.80;;;25.00;99.90;;;;;;8248984;28;20058;-73
2021/09/07 14:49:42;;;;;;;13.40;9.13;;;25.00;99.90;;;;;;8248492;28;20057;-72
2021/09/07 14:53:44;;;;;;;16.90;11.10;;;25.10;99.90;;;;;;8248535;28;20079;-72
2021/09/07 14:57:46;;;;;;;13.85;9.30;;;25.10;99.90;;;;;;8239867;28;20450;-73
2021/09/07 15:01:47;;;;;;;12.90;9.10;;;25.10;99.90;;;;;;8252064;28;20112;-73
2021/09/07 15:05:49;;;;;;;14.57;10.65;;;25.20;99.90;;;;;;8248961;28;20137;-73
2021/09/07 15:09:51;;;;;;;14.30;9.60;;;25.20;99.90;;;;;;8247747;28;20101;-72
2021/09/07 15:13:53;;;;;;;14.77;10.55;;;25.20;99.90;;;;;;8237403;28;20058;-73
2021/09/07 15:17:58;;;;;;;13.32;9.60;;;25.30;99.90;;;;;;8247685;28;20042;-73
2021/09/07 15:22:00;;;;;;;15.07;10.43;;;25.30;99.90;;;;;;8246965;28;20046;-73
2021/09/07 15:26:02;;;;;;;16.48;11.57;;;25.30;99.90;;;;;;8237922;28;20169;-73
2021/09/07 15:30:08;;;;;;;;;;;25.40;99.90;;;;;;8249090;28;20108;-72
2021/09/07 15:34:10;;;;;;;;;;;25.30;99.90;;;;;;8246933;28;19985;-72
2021/09/07 15:38:13;;;;;;;;;;;25.30;99.90;;;;;;8250998;28;20046;-73
2021/09/07 15:42:15;;;;;;;;;;;25.30;99.90;;;;;;8248342;28;19925;-73
2021/09/07 15:46:16;;;;;;;;;;;25.30;99.90;;;;;;8248590;28;20318;-72
2021/09/07 15:50:18;;;;;;;;;;;25.40;99.90;;;;;;8249202;28;19964;-73
2021/09/07 15:54:20;;;;;;;;;;;25.40;99.90;;;;;;8248860;28;19921;-72
2021/09/07 15:58:21;;;;;;;;;;;25.40;99.90;;;;;;8252863;28;19922;-73
2021/09/07 16:02:23;;;;;;;;;;;25.40;99.90;;;;;;8246334;28;19989;-72
2021/09/07 16:06:25;;;;;;;;;;;25.40;99.90;;;;;;8248730;28;19928;-72
2021/09/07 16:10:26;;;;;;;;;;;25.50;99.90;;;;;;8233070;28;20258;-72
2021/09/07 16:14:28;;;;;;;;;;;25.50;99.90;;;;;;8245909;28;19933;-73
2021/09/07 16:18:30;;;;;;;;;;;25.50;99.90;;;;;;8244640;28;20318;-73
2021/09/07 16:22:31;;;;;;;;;;;25.50;99.90;;;;;;8244919;28;19933;-73
2021/09/07 16:26:33;;;;;;;;;;;25.50;99.90;;;;;;8246416;28;19930;-73
2021/09/07 16:30:35;;;;;;;13.40;9.40;;;25.50;99.90;;;;;;8245351;28;19926;-73
2021/09/07 16:34:36;;;;;;;13.40;9.23;;;25.50;99.90;;;;;;8261563;28;19941;-73
2021/09/07 16:38:38;;;;;;;12.25;7.90;;;25.50;99.90;;;;;;8262377;28;20073;-73
2021/09/07 16:42:40;;;;;;;12.60;8.63;;;25.60;99.90;;;;;;8248582;28;20053;-73
2021/09/07 16:46:42;;;;;;;11.90;8.05;;;26.00;99.90;;;;;;8249512;28;20054;-73
2021/09/07 16:50:44;;;;;;;14.15;8.88;;;26.30;99.90;;;;;;8247359;28;20049;-73
2021/09/07 16:58:47;;;;;;;;;;;27.10;99.90;;;;;;8249571;28;19929;-73
2021/09/07 17:02:49;;;;;;;;;;;27.40;99.90;;;;;;8249458;28;21050;-73
2021/09/07 17:06:51;;;;;;;;;;;27.60;99.90;;;;;;8252458;28;19921;-73
2021/09/07 17:10:52;;;;;;;;;;;27.70;99.90;;;;;;8249283;28;19930;-73
2021/09/07 17:14:54;;;;;;;;;;;27.80;99.90;;;;;;8254478;28;20462;-73
2021/09/07 17:18:56;;;;;;;;;;;27.90;99.90;;;;;;8267506;28;20557;-73
2021/09/07 17:22:58;;;;;;;;;;;27.90;99.90;;;;;;8254740;28;19933;-73
2021/09/07 17:27:00;;;;;;;;;;;27.80;99.90;;;;;;8254542;28;19941;-73
2021/09/07 17:31:03;;;;;;;;;;;27.60;99.90;;;;;;8252696;28;19929;-73
2021/09/07 17:35:20;;;;;;;;;;;27.50;99.90;;;;;;8252071;28;19974;-73
2021/09/07 17:41:33;;;;;;;;;;;27.20;99.90;;;;;;8242198;28;19996;-73
2021/09/07 17:43:49;;;;;;;;;;;26.80;99.90;;;;;;8254431;28;19977;-73
2021/09/07 17:47:51;;;;;;;10.82;7.75;;;26.40;99.90;;;;;;8252556;28;19925;-73
2021/09/07 17:51:52;;;;;;;10.23;7.25;;;26.00;99.90;;;;;;8254231;28;20061;-73
2021/09/07 17:55:54;;;;;;;10.63;7.75;;;25.70;99.90;;;;;;8249783;28;20101;-73
2021/09/07 17:59:57;;;;;;;11.90;7.65;;;25.30;99.90;;;;;;8242483;28;20054;-73
2021/09/07 18:03:59;;;;;;;10.65;7.47;;;25.00;99.90;;;;;;8250255;28;20056;-73
2021/09/07 18:08:01;;;;;;;10.90;7.78;;;24.80;99.90;;;;;;8248089;28;20046;-73
2021/09/07 18:12:03;;;;;;;10.93;7.72;;;24.50;99.90;;;;;;8250198;28;20097;-73
2021/09/07 18:16:06;;;;;;;10.57;8.32;;;24.30;99.90;;;;;;8250189;28;20053;-73
2021/09/07 18:20:13;;;;;;;10.18;7.40;;;24.10;99.90;;;;;;8247517;28;20053;-72
2021/09/07 18:24:15;;;;;;;11.85;7.93;;;24.00;99.90;;;;;;8250052;28;20038;-73
2021/09/07 18:28:16;;;;;;;14.00;8.43;;;23.80;99.90;;;;;;8249141;28;20043;-73
2021/09/07 18:32:18;;;;;;;12.23;8.02;;;23.70;99.90;;;;;;8249411;28;20485;-74
2021/09/07 18:36:22;;;;;;;11.38;7.63;;;23.50;99.90;;;;;;8252674;28;20069;-73
2021/09/07 18:40:23;;;;;;;11.65;8.10;;;23.40;99.90;;;;;;8247545;28;20042;-73
2021/09/07 18:44:25;;;;;;;12.05;7.50;;;23.30;99.90;;;;;;8253075;28;20069;-73
2021/09/07 18:48:27;;;;;;;13.43;7.45;;;23.20;99.90;;;;;;8250070;28;20058;-73
2021/09/07 18:52:30;;;;;;;11.20;7.57;;;23.10;99.90;;;;;;8259340;28;20054;-73
2021/09/07 18:56:32;;;;;;;11.45;7.90;;;23.00;99.90;;;;;;8249841;28;20271;-73
2021/09/07 19:00:34;;;;;;;14.32;7.63;;;23.00;99.90;;;;;;8265224;28;20050;-73
2021/09/07 19:04:36;;;;;;;11.73;8.03;;;22.90;99.90;;;;;;8265733;28;20470;-73
2021/09/07 19:08:38;;;;;;;14.65;8.43;;;22.80;99.90;;;;;;8251865;28;20046;-73
2021/09/07 19:12:40;;;;;;;12.85;8.05;;;22.70;99.90;;;;;;8250955;28;20146;-73
2021/09/07 19:16:42;;;;;;;15.05;8.15;;;22.60;99.90;;;;;;8245850;28;20362;-73
2021/09/07 19:20:44;;;;;;;12.50;8.10;;;22.50;99.90;;;;;;8250942;28;20478;-73
2021/09/07 19:24:46;;;;;;;14.93;7.90;;;22.50;99.90;;;;;;8246594;28;20058;-73
2021/09/07 19:28:48;;;;;;;15.38;8.40;;;22.40;99.90;;;;;;8250563;28;20128;-73
2021/09/07 19:32:49;;;;;;;12.07;7.60;;;22.30;99.90;;;;;;8239863;28;20065;-73
2021/09/07 19:36:51;;;;;;;12.55;7.70;;;22.20;99.90;;;;;;8251101;28;20509;-73
2021/09/07 19:40:53;;;;;;;12.15;7.38;;;22.10;99.90;;;;;;8250316;28;20049;-73
2021/09/07 19:44:54;;;;;;;10.52;7.38;;;22.10;99.90;;;;;;8246761;28;20053;-74
2021/09/07 19:48:56;;;;;;;12.55;7.78;;;22.00;99.90;;;;;;8249972;28;20517;-73
2021/09/07 19:52:58;;;;;;;10.70;8.10;;;21.90;99.90;;;;;;8250368;28;20065;-73
2021/09/07 19:57:00;;;;;;;10.52;7.97;;;21.80;99.90;;;;;;8247674;28;20077;-73
2021/09/07 20:01:02;;;;;;;12.27;7.88;;;21.70;99.90;;;;;;8249391;28;20051;-74
2021/09/07 20:05:04;;;;;;;11.10;7.72;;;21.70;99.90;;;;;;8249336;28;20046;-73
2021/09/07 20:09:06;;;;;;;11.30;8.00;;;21.60;99.90;;;;;;8264796;28;20057;-73
2021/09/07 20:13:07;;;;;;;12.13;8.52;;;21.50;99.90;;;;;;8256909;28;20061;-73
2021/09/07 20:17:09;;;;;;;12.40;8.82;;;21.50;99.90;;;;;;8247025;28;20489;-73
2021/09/07 20:21:14;;;;;;;13.32;8.23;;;21.40;99.90;;;;;;8245991;28;20058;-73
2021/09/07 20:25:16;;;;;;;12.52;8.65;;;21.30;99.90;;;;;;8250253;28;20061;-73
2021/09/07 20:29:17;;;;;;;10.95;7.75;;;21.30;99.90;;;;;;8254320;28;20157;-73
2021/09/07 20:33:19;;;;;;;11.05;7.97;;;21.20;99.90;;;;;;8268843;28;20062;-73
2021/09/07 20:37:21;;;;;;;13.55;8.27;;;21.20;99.90;;;;;;8255781;28;20046;-73
2021/09/07 20:41:24;;;;;;;14.43;8.30;;;21.10;99.90;;;;;;8255551;28;20046;-73
2021/09/07 20:45:26;;;;;;;12.38;8.48;;;21.10;99.90;;;;;;8256012;28;20069;-72
2021/09/07 20:49:27;;;;;;;11.15;7.90;;;21.00;99.90;;;;;;8256102;28;20058;-73
2021/09/07 20:53:32;;;;;;;12.13;8.00;;;21.00;99.90;;;;;;8256213;28;20076;-73
2021/09/07 20:57:34;;;;;;;12.93;7.78;;;20.90;99.90;;;;;;8268445;28;20050;-73
2021/09/07 21:01:36;;;;;;;10.75;7.65;;;20.90;99.90;;;;;;8252322;28;20042;-73
2021/09/07 21:05:38;;;;;;;13.88;8.15;;;20.80;99.90;;;;;;8257563;28;20129;-73
2021/09/07 21:09:40;;;;;;;11.40;8.07;;;20.80;99.90;;;;;;8259329;28;20039;-74
2021/09/07 21:13:42;;;;;;;12.57;7.88;;;20.70;99.90;;;;;;8257185;28;20046;-73
2021/09/07 21:17:43;;;;;;;10.90;7.78;;;20.70;99.90;;;;;;8255848;28;20051;-72
2021/09/07 21:21:45;;;;;;;10.05;7.95;;;20.70;99.90;;;;;;8256504;28;20046;-74
2021/09/07 21:25:47;;;;;;;11.13;7.82;;;20.60;99.90;;;;;;8256641;28;20065;-73
2021/09/07 21:29:48;;;;;;;11.30;7.85;;;20.50;99.90;;;;;;8274695;28;20058;-73